sensor_id;sensor_type;location;lat;lon;timestamp;P1;durP1;ratioP1;P2;durP2;ratioP2
19727;SDS011;10015;52.530;13.390;2022-12-07T05:16:39;19.40;;;8.93;;
19727;SDS011;10015;52.530;13.390;2022-12-07T05:23:51;23.43;;;9.33;;
19727;SDS011;10015;52.530;13.390;2022-12-07T05:26:55;19.10;;;9.07;;
19727;SDS011;10015;52.530;13.390;2022-12-07T05:30:18;24.23;;;9.90;;
19727;SDS011;10015;52.530;13.390;2022-12-07T05:34:04;18.23;;;9.67;;
19727;SDS011;10015;52.530;13.390;2022-12-07T05:36:38;23.43;;;9.67;;
19727;SDS011;10015;52.530;13.390;2022-12-07T05:40:07;24.43;;;9.87;;
19727;SDS011;10015;52.530;13.390;2022-12-07T05:43:21;21.90;;;9.67;;
19727;SDS011;10015;52.530;13.390;2022-12-07T05:53:39;25.17;;;9.97;;
19727;SDS011;10015;52.530;13.390;2022-12-07T05:56:47;27.87;;;11.03;;
19727;SDS011;10015;52.530;13.390;2022-12-07T06:06:02;27.03;;;11.43;;
19727;SDS011;10015;52.530;13.390;2022-12-07T06:09:12;23.90;;;10.80;;
19727;SDS011;10015;52.530;13.390;2022-12-07T06:12:01;27.03;;;11.20;;
19727;SDS011;10015;52.530;13.390;2022-12-07T06:15:37;28.10;;;10.83;;
19727;SDS011;10015;52.530;13.390;2022-12-07T06:18:17;24.50;;;10.43;;
19727;SDS011;10015;52.530;13.390;2022-12-07T06:21:39;24.47;;;10.37;;
19727;SDS011;10015;52.530;13.390;2022-12-07T06:24:47;25.97;;;10.57;;
19727;SDS011;10015;52.530;13.390;2022-12-07T06:31:55;25.13;;;9.93;;
19727;SDS011;10015;52.530;13.390;2022-12-07T06:34:39;27.37;;;10.77;;
19727;SDS011;10015;52.530;13.390;2022-12-07T06:40:34;26.03;;;10.93;;
19727;SDS011;10015;52.530;13.390;2022-12-07T06:46:12;22.93;;;10.47;;
19727;SDS011;10015;52.530;13.390;2022-12-07T06:49:03;25.47;;;10.77;;
19727;SDS011;10015;52.530;13.390;2022-12-07T06:55:25;24.63;;;10.73;;
19727;SDS011;10015;52.530;13.390;2022-12-07T06:58:19;25.87;;;11.60;;
19727;SDS011;10015;52.530;13.390;2022-12-07T07:04:45;22.50;;;9.93;;
19727;SDS011;10015;52.530;13.390;2022-12-07T07:07:42;28.40;;;11.40;;
19727;SDS011;10015;52.530;13.390;2022-12-07T07:10:33;23.50;;;10.67;;
19727;SDS011;10015;52.530;13.390;2022-12-07T07:13:42;24.43;;;10.30;;
19727;SDS011;10015;52.530;13.390;2022-12-07T07:16:46;26.20;;;11.00;;
19727;SDS011;10015;52.530;13.390;2022-12-07T07:20:09;28.33;;;11.63;;
19727;SDS011;10015;52.530;13.390;2022-12-07T07:23:00;25.53;;;10.83;;
19727;SDS011;10015;52.530;13.390;2022-12-07T07:26:13;26.93;;;10.47;;
19727;SDS011;10015;52.530;13.390;2022-12-07T07:29:41;27.47;;;10.63;;
19727;SDS011;10015;52.530;13.390;2022-12-07T07:32:38;30.97;;;10.67;;
19727;SDS011;10015;52.530;13.390;2022-12-07T07:35:40;23.43;;;10.13;;
19727;SDS011;10015;52.530;13.390;2022-12-07T07:38:25;25.50;;;11.00;;
19727;SDS011;10015;52.530;13.390;2022-12-07T07:41:40;23.43;;;9.60;;
19727;SDS011;10015;52.530;13.390;2022-12-07T07:44:46;22.77;;;10.97;;
19727;SDS011;10015;52.530;13.390;2022-12-07T07:47:36;21.90;;;9.27;;
19727;SDS011;10015;52.530;13.390;2022-12-07T07:57:47;19.97;;;8.70;;
19727;SDS011;10015;52.530;13.390;2022-12-07T08:04:32;18.23;;;8.17;;
19727;SDS011;10015;52.530;13.390;2022-12-07T08:11:19;16.33;;;7.00;;
19727;SDS011;10015;52.530;13.390;2022-12-07T08:14:38;13.80;;;6.77;;
19727;SDS011;10015;52.530;13.390;2022-12-07T08:18:02;15.00;;;6.43;;
19727;SDS011;10015;52.530;13.390;2022-12-07T08:21:05;11.27;;;5.67;;
19727;SDS011;10015;52.530;13.390;2022-12-07T08:23:58;12.77;;;5.53;;
19727;SDS011;10015;52.530;13.390;2022-12-07T08:31:25;12.67;;;5.53;;
19727;SDS011;10015;52.530;13.390;2022-12-07T08:34:38;14.93;;;5.03;;
19727;SDS011;10015;52.530;13.390;2022-12-07T08:38:23;10.87;;;4.80;;
19727;SDS011;10015;52.530;13.390;2022-12-07T08:41:33;8.50;;;3.80;;
19727;SDS011;10015;52.530;13.390;2022-12-07T08:44:40;8.07;;;3.70;;
19727;SDS011;10015;52.530;13.390;2022-12-07T08:48:48;6.40;;;3.57;;
19727;SDS011;10015;52.530;13.390;2022-12-07T08:51:59;7.30;;;3.23;;
19727;SDS011;10015;52.530;13.390;2022-12-07T08:59:15;4.83;;;2.57;;
19727;SDS011;10015;52.530;13.390;2022-12-07T09:02:19;4.80;;;2.60;;
19727;SDS011;10015;52.530;13.390;2022-12-07T09:11:56;4.17;;;2.47;;
19727;SDS011;10015;52.530;13.390;2022-12-07T09:14:56;3.73;;;2.40;;
19727;SDS011;10015;52.530;13.390;2022-12-07T09:21:58;5.33;;;2.20;;
19727;SDS011;10015;52.530;13.390;2022-12-07T09:24:36;2.13;;;1.70;;
19727;SDS011;10015;52.530;13.390;2022-12-07T09:27:47;2.00;;;1.40;;
19727;SDS011;10015;52.530;13.390;2022-12-07T09:31:01;6.30;;;1.60;;
19727;SDS011;10015;52.530;13.390;2022-12-07T09:34:15;3.33;;;1.50;;
19727;SDS011;10015;52.530;13.390;2022-12-07T09:40:51;2.90;;;1.93;;
19727;SDS011;10015;52.530;13.390;2022-12-07T09:43:42;3.10;;;1.70;;
19727;SDS011;10015;52.530;13.390;2022-12-07T09:46:27;3.13;;;1.80;;
19727;SDS011;10015;52.530;13.390;2022-12-07T09:49:47;3.07;;;1.80;;
19727;SDS011;10015;52.530;13.390;2022-12-07T09:52:32;3.07;;;1.97;;
19727;SDS011;10015;52.530;13.390;2022-12-07T09:55:14;2.53;;;2.10;;
19727;SDS011;10015;52.530;13.390;2022-12-07T09:58:25;2.80;;;1.70;;
19727;SDS011;10015;52.530;13.390;2022-12-07T10:01:34;2.87;;;1.40;;
19727;SDS011;10015;52.530;13.390;2022-12-07T10:11:01;3.03;;;1.57;;
19727;SDS011;10015;52.530;13.390;2022-12-07T10:14:09;2.27;;;1.70;;
19727;SDS011;10015;52.530;13.390;2022-12-07T10:26:36;3.37;;;1.40;;
19727;SDS011;10015;52.530;13.390;2022-12-07T10:29:28;3.33;;;1.70;;
19727;SDS011;10015;52.530;13.390;2022-12-07T10:38:24;3.20;;;1.80;;
19727;SDS011;10015;52.530;13.390;2022-12-07T10:41:20;3.13;;;1.70;;
19727;SDS011;10015;52.530;13.390;2022-12-07T10:44:11;4.03;;;2.00;;
19727;SDS011;10015;52.530;13.390;2022-12-07T11:37:18;6.40;;;3.30;;
19727;SDS011;10015;52.530;13.390;2022-12-07T11:40:43;9.40;;;3.20;;
19727;SDS011;10015;52.530;13.390;2022-12-07T11:44:00;4.60;;;3.20;;
19727;SDS011;10015;52.530;13.390;2022-12-07T11:51:00;9.13;;;3.57;;
19727;SDS011;10015;52.530;13.390;2022-12-07T12:14:39;7.37;;;3.10;;
19727;SDS011;10015;52.530;13.390;2022-12-07T12:21:13;4.60;;;3.20;;
19727;SDS011;10015;52.530;13.390;2022-12-07T12:30:42;8.60;;;2.93;;
19727;SDS011;10015;52.530;13.390;2022-12-07T12:33:30;8.40;;;2.53;;
19727;SDS011;10015;52.530;13.390;2022-12-07T12:36:24;6.90;;;2.87;;
19727;SDS011;10015;52.530;13.390;2022-12-07T12:39:16;7.17;;;2.60;;
19727;SDS011;10015;52.530;13.390;2022-12-07T12:41:59;6.23;;;2.50;;
19727;SDS011;10015;52.530;13.390;2022-12-07T12:45:02;5.50;;;2.40;;
19727;SDS011;10015;52.530;13.390;2022-12-07T12:47:42;7.33;;;2.53;;
19727;SDS011;10015;52.530;13.390;2022-12-07T12:54:04;6.27;;;2.47;;
19727;SDS011;10015;52.530;13.390;2022-12-07T12:59:42;6.30;;;2.13;;
19727;SDS011;10015;52.530;13.390;2022-12-07T13:03:27;6.60;;;2.40;;
19727;SDS011;10015;52.530;13.390;2022-12-07T13:12:33;6.37;;;2.40;;
19727;SDS011;10015;52.530;13.390;2022-12-07T13:15:30;3.63;;;1.80;;
19727;SDS011;10015;52.530;13.390;2022-12-07T13:18:03;4.07;;;1.80;;
19727;SDS011;10015;52.530;13.390;2022-12-07T13:24:18;3.73;;;1.70;;
19727;SDS011;10015;52.530;13.390;2022-12-07T13:27:23;3.43;;;1.93;;
19727;SDS011;10015;52.530;13.390;2022-12-07T13:30:16;4.80;;;1.93;;
19727;SDS011;10015;52.530;13.390;2022-12-07T13:36:17;7.60;;;2.20;;
19727;SDS011;10015;52.530;13.390;2022-12-07T13:38:52;4.70;;;1.60;;
19727;SDS011;10015;52.530;13.390;2022-12-07T13:41:27;3.83;;;1.90;;
19727;SDS011;10015;52.530;13.390;2022-12-07T13:44:40;5.43;;;1.73;;
19727;SDS011;10015;52.530;13.390;2022-12-07T13:50:58;5.10;;;1.90;;
19727;SDS011;10015;52.530;13.390;2022-12-07T13:53:29;4.30;;;1.70;;
19727;SDS011;10015;52.530;13.390;2022-12-07T13:56:21;5.97;;;1.70;;
19727;SDS011;10015;52.530;13.390;2022-12-07T13:58:57;7.93;;;2.30;;
19727;SDS011;10015;52.530;13.390;2022-12-07T14:01:43;3.40;;;1.70;;
19727;SDS011;10015;52.530;13.390;2022-12-07T14:04:39;6.07;;;2.00;;
19727;SDS011;10015;52.530;13.390;2022-12-07T14:11:01;6.77;;;1.97;;
19727;SDS011;10015;52.530;13.390;2022-12-07T14:14:10;4.03;;;1.77;;
19727;SDS011;10015;52.530;13.390;2022-12-07T14:17:08;2.83;;;1.67;;
19727;SDS011;10015;52.530;13.390;2022-12-07T14:20:28;5.47;;;1.73;;
19727;SDS011;10015;52.530;13.390;2022-12-07T14:23:25;5.27;;;2.40;;
19727;SDS011;10015;52.530;13.390;2022-12-07T14:26:27;6.40;;;2.73;;
19727;SDS011;10015;52.530;13.390;2022-12-07T14:29:32;7.67;;;2.40;;
19727;SDS011;10015;52.530;13.390;2022-12-07T14:32:28;5.50;;;2.00;;
19727;SDS011;10015;52.530;13.390;2022-12-07T14:35:16;3.60;;;2.03;;
19727;SDS011;10015;52.530;13.390;2022-12-07T14:37:50;4.53;;;1.80;;
19727;SDS011;10015;52.530;13.390;2022-12-07T14:40:28;5.03;;;1.77;;
19727;SDS011;10015;52.530;13.390;2022-12-07T14:43:39;5.70;;;1.90;;
19727;SDS011;10015;52.530;13.390;2022-12-07T14:46:14;3.60;;;2.10;;
19727;SDS011;10015;52.530;13.390;2022-12-07T14:53:03;5.87;;;1.80;;
19727;SDS011;10015;52.530;13.390;2022-12-07T14:56:33;5.10;;;1.70;;
19727;SDS011;10015;52.530;13.390;2022-12-07T14:59:01;4.27;;;1.93;;
19727;SDS011;10015;52.530;13.390;2022-12-07T15:01:28;4.40;;;1.97;;
19727;SDS011;10015;52.530;13.390;2022-12-07T15:03:54;4.13;;;1.60;;
19727;SDS011;10015;52.530;13.390;2022-12-07T15:06:20;5.10;;;1.43;;
19727;SDS011;10015;52.530;13.390;2022-12-07T15:08:47;2.90;;;1.60;;
19727;SDS011;10015;52.530;13.390;2022-12-07T15:11:14;3.17;;;1.50;;
19727;SDS011;10015;52.530;13.390;2022-12-07T15:13:41;5.57;;;1.53;;
19727;SDS011;10015;52.530;13.390;2022-12-07T15:16:27;5.17;;;1.70;;
19727;SDS011;10015;52.530;13.390;2022-12-07T15:18:53;5.30;;;1.80;;
19727;SDS011;10015;52.530;13.390;2022-12-07T15:21:20;4.50;;;1.60;;
19727;SDS011;10015;52.530;13.390;2022-12-07T15:23:46;4.80;;;1.80;;
19727;SDS011;10015;52.530;13.390;2022-12-07T15:26:12;8.30;;;1.40;;
19727;SDS011;10015;52.530;13.390;2022-12-07T15:28:39;7.37;;;1.47;;
19727;SDS011;10015;52.530;13.390;2022-12-07T15:31:15;5.03;;;1.60;;
19727;SDS011;10015;52.530;13.390;2022-12-07T15:33:42;4.33;;;1.73;;
19727;SDS011;10015;52.530;13.390;2022-12-07T15:36:13;7.77;;;1.63;;
19727;SDS011;10015;52.530;13.390;2022-12-07T15:38:46;5.83;;;1.40;;
19727;SDS011;10015;52.530;13.390;2022-12-07T15:41:16;3.57;;;1.53;;
19727;SDS011;10015;52.530;13.390;2022-12-07T15:43:43;4.10;;;1.63;;
19727;SDS011;10015;52.530;13.390;2022-12-07T15:46:38;2.03;;;1.10;;
19727;SDS011;10015;52.530;13.390;2022-12-07T15:49:10;6.37;;;1.80;;
19727;SDS011;10015;52.530;13.390;2022-12-07T15:51:42;2.97;;;1.43;;
19727;SDS011;10015;52.530;13.390;2022-12-07T15:54:12;5.30;;;1.50;;
19727;SDS011;10015;52.530;13.390;2022-12-07T15:56:43;9.23;;;2.23;;
19727;SDS011;10015;52.530;13.390;2022-12-07T15:59:09;7.77;;;1.83;;
19727;SDS011;10015;52.530;13.390;2022-12-07T16:01:35;9.13;;;1.73;;
19727;SDS011;10015;52.530;13.390;2022-12-07T16:04:01;5.17;;;1.80;;
19727;SDS011;10015;52.530;13.390;2022-12-07T16:06:27;5.57;;;1.60;;
19727;SDS011;10015;52.530;13.390;2022-12-07T16:08:53;6.03;;;2.07;;
19727;SDS011;10015;52.530;13.390;2022-12-07T16:11:20;6.20;;;1.80;;
19727;SDS011;10015;52.530;13.390;2022-12-07T16:13:46;5.10;;;1.67;;
19727;SDS011;10015;52.530;13.390;2022-12-07T16:16:13;4.50;;;1.60;;
19727;SDS011;10015;52.530;13.390;2022-12-07T16:18:44;2.80;;;1.60;;
19727;SDS011;10015;52.530;13.390;2022-12-07T16:21:12;4.80;;;1.57;;
19727;SDS011;10015;52.530;13.390;2022-12-07T16:23:41;6.77;;;1.87;;
19727;SDS011;10015;52.530;13.390;2022-12-07T16:26:09;7.87;;;1.87;;
19727;SDS011;10015;52.530;13.390;2022-12-07T16:28:37;6.47;;;1.83;;
19727;SDS011;10015;52.530;13.390;2022-12-07T16:31:04;5.23;;;1.40;;
19727;SDS011;10015;52.530;13.390;2022-12-07T16:33:42;6.20;;;1.50;;
19727;SDS011;10015;52.530;13.390;2022-12-07T16:36:09;4.60;;;1.57;;
19727;SDS011;10015;52.530;13.390;2022-12-07T16:38:36;5.33;;;1.57;;
19727;SDS011;10015;52.530;13.390;2022-12-07T16:41:04;4.63;;;1.47;;
19727;SDS011;10015;52.530;13.390;2022-12-07T16:43:31;6.43;;;1.93;;
19727;SDS011;10015;52.530;13.390;2022-12-07T16:45:58;6.57;;;1.70;;
19727;SDS011;10015;52.530;13.390;2022-12-07T16:48:24;3.77;;;1.90;;
19727;SDS011;10015;52.530;13.390;2022-12-07T16:50:50;5.67;;;1.63;;
19727;SDS011;10015;52.530;13.390;2022-12-07T16:53:20;5.90;;;1.60;;
19727;SDS011;10015;52.530;13.390;2022-12-07T16:55:48;4.73;;;1.80;;
19727;SDS011;10015;52.530;13.390;2022-12-07T16:58:15;8.03;;;2.30;;
19727;SDS011;10015;52.530;13.390;2022-12-07T17:00:42;4.60;;;1.77;;
19727;SDS011;10015;52.530;13.390;2022-12-07T17:03:09;5.90;;;1.67;;
19727;SDS011;10015;52.530;13.390;2022-12-07T17:05:37;6.20;;;1.93;;
19727;SDS011;10015;52.530;13.390;2022-12-07T17:08:04;5.40;;;1.80;;
19727;SDS011;10015;52.530;13.390;2022-12-07T17:10:31;3.97;;;1.47;;
19727;SDS011;10015;52.530;13.390;2022-12-07T17:13:01;6.37;;;1.67;;
19727;SDS011;10015;52.530;13.390;2022-12-07T17:15:27;3.93;;;2.00;;
19727;SDS011;10015;52.530;13.390;2022-12-07T17:17:56;7.77;;;2.20;;
19727;SDS011;10015;52.530;13.390;2022-12-07T17:20:24;5.67;;;1.77;;
19727;SDS011;10015;52.530;13.390;2022-12-07T17:22:51;6.23;;;1.60;;
19727;SDS011;10015;52.530;13.390;2022-12-07T17:25:18;7.33;;;2.50;;
19727;SDS011;10015;52.530;13.390;2022-12-07T17:27:45;5.13;;;1.90;;
19727;SDS011;10015;52.530;13.390;2022-12-07T17:30:12;9.33;;;2.03;;
19727;SDS011;10015;52.530;13.390;2022-12-07T17:32:39;4.50;;;1.63;;
19727;SDS011;10015;52.530;13.390;2022-12-07T17:35:05;4.47;;;1.70;;
19727;SDS011;10015;52.530;13.390;2022-12-07T17:37:31;8.33;;;2.23;;
19727;SDS011;10015;52.530;13.390;2022-12-07T17:39:57;7.33;;;2.13;;
19727;SDS011;10015;52.530;13.390;2022-12-07T17:42:24;7.77;;;2.00;;
19727;SDS011;10015;52.530;13.390;2022-12-07T17:45:05;4.03;;;1.70;;
19727;SDS011;10015;52.530;13.390;2022-12-07T17:47:34;9.87;;;2.20;;
19727;SDS011;10015;52.530;13.390;2022-12-07T17:50:00;6.73;;;1.90;;
19727;SDS011;10015;52.530;13.390;2022-12-07T17:52:27;6.13;;;1.93;;
19727;SDS011;10015;52.530;13.390;2022-12-07T17:55:11;5.80;;;2.23;;
19727;SDS011;10015;52.530;13.390;2022-12-07T17:57:37;5.90;;;2.20;;
19727;SDS011;10015;52.530;13.390;2022-12-07T18:00:04;5.93;;;2.17;;
19727;SDS011;10015;52.530;13.390;2022-12-07T18:02:37;6.20;;;2.10;;
19727;SDS011;10015;52.530;13.390;2022-12-07T18:05:03;5.70;;;2.07;;
19727;SDS011;10015;52.530;13.390;2022-12-07T18:07:29;4.63;;;1.87;;
19727;SDS011;10015;52.530;13.390;2022-12-07T18:09:55;5.20;;;2.20;;
19727;SDS011;10015;52.530;13.390;2022-12-07T18:12:22;6.67;;;2.10;;
19727;SDS011;10015;52.530;13.390;2022-12-07T18:14:48;5.70;;;2.23;;
19727;SDS011;10015;52.530;13.390;2022-12-07T18:17:16;7.23;;;2.27;;
19727;SDS011;10015;52.530;13.390;2022-12-07T18:19:42;7.13;;;2.40;;
19727;SDS011;10015;52.530;13.390;2022-12-07T18:22:08;4.37;;;2.20;;
19727;SDS011;10015;52.530;13.390;2022-12-07T18:24:35;4.17;;;1.87;;
19727;SDS011;10015;52.530;13.390;2022-12-07T18:27:03;7.47;;;2.23;;
19727;SDS011;10015;52.530;13.390;2022-12-07T18:29:29;4.27;;;1.80;;
19727;SDS011;10015;52.530;13.390;2022-12-07T18:31:55;7.73;;;2.63;;
19727;SDS011;10015;52.530;13.390;2022-12-07T18:34:21;5.53;;;2.33;;
19727;SDS011;10015;52.530;13.390;2022-12-07T18:36:52;4.27;;;2.10;;
19727;SDS011;10015;52.530;13.390;2022-12-07T18:39:19;6.07;;;2.90;;
19727;SDS011;10015;52.530;13.390;2022-12-07T18:41:45;5.87;;;2.43;;
19727;SDS011;10015;52.530;13.390;2022-12-07T18:44:12;5.13;;;2.33;;
19727;SDS011;10015;52.530;13.390;2022-12-07T18:46:38;11.23;;;3.37;;
19727;SDS011;10015;52.530;13.390;2022-12-07T18:49:07;9.80;;;3.00;;
19727;SDS011;10015;52.530;13.390;2022-12-07T18:51:36;6.57;;;2.53;;
19727;SDS011;10015;52.530;13.390;2022-12-07T18:54:03;5.27;;;2.53;;
19727;SDS011;10015;52.530;13.390;2022-12-07T18:56:29;5.40;;;2.37;;
19727;SDS011;10015;52.530;13.390;2022-12-07T18:58:57;3.53;;;2.43;;
19727;SDS011;10015;52.530;13.390;2022-12-07T19:01:43;5.53;;;2.47;;
19727;SDS011;10015;52.530;13.390;2022-12-07T19:04:11;3.37;;;1.97;;
19727;SDS011;10015;52.530;13.390;2022-12-07T19:06:37;7.07;;;1.80;;
19727;SDS011;10015;52.530;13.390;2022-12-07T19:09:05;6.97;;;2.00;;
19727;SDS011;10015;52.530;13.390;2022-12-07T19:11:31;7.17;;;2.13;;
19727;SDS011;10015;52.530;13.390;2022-12-07T19:14:21;8.33;;;2.27;;
19727;SDS011;10015;52.530;13.390;2022-12-07T19:16:49;6.80;;;2.30;;
19727;SDS011;10015;52.530;13.390;2022-12-07T19:19:19;6.20;;;2.10;;
19727;SDS011;10015;52.530;13.390;2022-12-07T19:21:47;7.47;;;2.47;;
19727;SDS011;10015;52.530;13.390;2022-12-07T19:24:14;6.10;;;2.43;;
19727;SDS011;10015;52.530;13.390;2022-12-07T19:26:40;11.27;;;5.43;;
19727;SDS011;10015;52.530;13.390;2022-12-07T19:29:06;6.70;;;2.50;;
19727;SDS011;10015;52.530;13.390;2022-12-07T19:31:33;6.83;;;2.40;;
19727;SDS011;10015;52.530;13.390;2022-12-07T19:34:00;8.50;;;2.67;;
19727;SDS011;10015;52.530;13.390;2022-12-07T19:36:38;6.07;;;2.50;;
19727;SDS011;10015;52.530;13.390;2022-12-07T19:39:04;8.57;;;2.70;;
19727;SDS011;10015;52.530;13.390;2022-12-07T19:41:31;6.00;;;2.43;;
19727;SDS011;10015;52.530;13.390;2022-12-07T19:44:02;8.90;;;2.97;;
19727;SDS011;10015;52.530;13.390;2022-12-07T19:46:31;3.90;;;2.40;;
19727;SDS011;10015;52.530;13.390;2022-12-07T19:48:58;6.10;;;2.90;;
19727;SDS011;10015;52.530;13.390;2022-12-07T19:51:27;7.93;;;3.33;;
19727;SDS011;10015;52.530;13.390;2022-12-07T19:54:00;5.80;;;3.20;;
19727;SDS011;10015;52.530;13.390;2022-12-07T19:56:27;10.23;;;3.10;;
19727;SDS011;10015;52.530;13.390;2022-12-07T19:58:54;4.87;;;2.57;;
19727;SDS011;10015;52.530;13.390;2022-12-07T20:01:25;15.67;;;4.50;;
19727;SDS011;10015;52.530;13.390;2022-12-07T20:03:51;7.93;;;3.87;;
19727;SDS011;10015;52.530;13.390;2022-12-07T20:06:18;10.10;;;3.37;;
19727;SDS011;10015;52.530;13.390;2022-12-07T20:08:45;8.87;;;2.77;;
19727;SDS011;10015;52.530;13.390;2022-12-07T20:11:13;7.03;;;3.03;;
19727;SDS011;10015;52.530;13.390;2022-12-07T20:14:10;7.27;;;3.10;;
19727;SDS011;10015;52.530;13.390;2022-12-07T20:16:37;6.80;;;2.53;;
19727;SDS011;10015;52.530;13.390;2022-12-07T20:19:05;6.13;;;2.93;;
19727;SDS011;10015;52.530;13.390;2022-12-07T20:21:35;6.40;;;2.67;;
19727;SDS011;10015;52.530;13.390;2022-12-07T20:24:02;7.47;;;2.80;;
19727;SDS011;10015;52.530;13.390;2022-12-07T20:26:31;7.70;;;2.80;;
19727;SDS011;10015;52.530;13.390;2022-12-07T20:28:58;8.27;;;3.10;;
19727;SDS011;10015;52.530;13.390;2022-12-07T20:31:25;5.43;;;2.53;;
19727;SDS011;10015;52.530;13.390;2022-12-07T20:33:51;8.80;;;3.07;;
19727;SDS011;10015;52.530;13.390;2022-12-07T20:36:17;6.80;;;2.40;;
19727;SDS011;10015;52.530;13.390;2022-12-07T20:38:44;5.70;;;2.60;;
19727;SDS011;10015;52.530;13.390;2022-12-07T20:41:11;7.43;;;2.97;;
19727;SDS011;10015;52.530;13.390;2022-12-07T20:43:58;7.33;;;2.83;;
19727;SDS011;10015;52.530;13.390;2022-12-07T20:46:25;6.57;;;2.70;;
19727;SDS011;10015;52.530;13.390;2022-12-07T20:48:51;8.97;;;3.43;;
19727;SDS011;10015;52.530;13.390;2022-12-07T20:51:17;7.43;;;3.40;;
19727;SDS011;10015;52.530;13.390;2022-12-07T20:53:44;9.30;;;2.90;;
19727;SDS011;10015;52.530;13.390;2022-12-07T20:56:43;7.00;;;2.87;;
19727;SDS011;10015;52.530;13.390;2022-12-07T20:59:03;5.90;;;2.77;;
19727;SDS011;10015;52.530;13.390;2022-12-07T21:01:31;5.73;;;2.90;;
19727;SDS011;10015;52.530;13.390;2022-12-07T21:03:57;8.63;;;3.30;;
19727;SDS011;10015;52.530;13.390;2022-12-07T21:06:25;6.33;;;2.93;;
19727;SDS011;10015;52.530;13.390;2022-12-07T21:08:53;7.23;;;3.27;;
19727;SDS011;10015;52.530;13.390;2022-12-07T21:11:20;8.47;;;3.13;;
19727;SDS011;10015;52.530;13.390;2022-12-07T21:13:47;7.47;;;2.97;;
19727;SDS011;10015;52.530;13.390;2022-12-07T21:16:18;6.90;;;3.07;;
19727;SDS011;10015;52.530;13.390;2022-12-07T21:18:46;7.93;;;3.43;;
19727;SDS011;10015;52.530;13.390;2022-12-07T21:21:14;5.27;;;2.70;;
19727;SDS011;10015;52.530;13.390;2022-12-07T21:23:44;11.53;;;3.43;;
19727;SDS011;10015;52.530;13.390;2022-12-07T21:26:12;7.23;;;2.90;;
19727;SDS011;10015;52.530;13.390;2022-12-07T21:28:40;6.10;;;2.73;;
19727;SDS011;10015;52.530;13.390;2022-12-07T21:31:06;11.30;;;3.37;;
19727;SDS011;10015;52.530;13.390;2022-12-07T21:33:33;6.03;;;2.87;;
19727;SDS011;10015;52.530;13.390;2022-12-07T21:36:04;5.70;;;2.73;;
19727;SDS011;10015;52.530;13.390;2022-12-07T21:38:31;7.67;;;2.80;;
19727;SDS011;10015;52.530;13.390;2022-12-07T21:40:58;8.47;;;2.80;;
19727;SDS011;10015;52.530;13.390;2022-12-07T21:43:24;7.27;;;3.27;;
19727;SDS011;10015;52.530;13.390;2022-12-07T21:45:51;6.73;;;2.93;;
19727;SDS011;10015;52.530;13.390;2022-12-07T21:48:17;14.17;;;3.60;;
19727;SDS011;10015;52.530;13.390;2022-12-07T21:50:44;6.90;;;3.53;;
19727;SDS011;10015;52.530;13.390;2022-12-07T21:53:11;6.77;;;3.00;;
19727;SDS011;10015;52.530;13.390;2022-12-07T21:55:39;6.80;;;3.40;;
19727;SDS011;10015;52.530;13.390;2022-12-07T21:58:09;5.63;;;3.23;;
19727;SDS011;10015;52.530;13.390;2022-12-07T22:00:36;8.03;;;3.17;;
19727;SDS011;10015;52.530;13.390;2022-12-07T22:03:02;9.03;;;3.00;;
19727;SDS011;10015;52.530;13.390;2022-12-07T22:05:29;6.37;;;3.70;;
19727;SDS011;10015;52.530;13.390;2022-12-07T22:07:55;8.47;;;3.33;;
19727;SDS011;10015;52.530;13.390;2022-12-07T22:10:21;10.17;;;4.50;;
19727;SDS011;10015;52.530;13.390;2022-12-07T22:12:56;6.93;;;3.40;;
19727;SDS011;10015;52.530;13.390;2022-12-07T22:15:26;10.90;;;3.77;;
19727;SDS011;10015;52.530;13.390;2022-12-07T22:17:53;8.03;;;3.80;;
19727;SDS011;10015;52.530;13.390;2022-12-07T22:20:20;6.37;;;3.67;;
19727;SDS011;10015;52.530;13.390;2022-12-07T22:22:47;10.00;;;3.80;;
19727;SDS011;10015;52.530;13.390;2022-12-07T22:25:14;6.20;;;3.60;;
19727;SDS011;10015;52.530;13.390;2022-12-07T22:27:40;8.23;;;3.80;;
19727;SDS011;10015;52.530;13.390;2022-12-07T22:30:07;8.40;;;3.90;;
19727;SDS011;10015;52.530;13.390;2022-12-07T22:32:36;8.17;;;3.50;;
19727;SDS011;10015;52.530;13.390;2022-12-07T22:35:03;9.00;;;3.30;;
19727;SDS011;10015;52.530;13.390;2022-12-07T22:37:30;7.33;;;3.70;;
19727;SDS011;10015;52.530;13.390;2022-12-07T22:39:56;7.80;;;3.57;;
19727;SDS011;10015;52.530;13.390;2022-12-07T22:42:22;8.03;;;3.80;;
19727;SDS011;10015;52.530;13.390;2022-12-07T22:44:48;7.30;;;3.80;;
19727;SDS011;10015;52.530;13.390;2022-12-07T22:47:14;11.17;;;3.73;;
19727;SDS011;10015;52.530;13.390;2022-12-07T22:49:41;6.90;;;3.33;;
19727;SDS011;10015;52.530;13.390;2022-12-07T22:52:07;7.20;;;3.60;;
19727;SDS011;10015;52.530;13.390;2022-12-07T22:54:33;5.80;;;3.43;;
19727;SDS011;10015;52.530;13.390;2022-12-07T22:57:00;9.00;;;3.90;;
19727;SDS011;10015;52.530;13.390;2022-12-07T22:59:26;13.17;;;3.40;;
19727;SDS011;10015;52.530;13.390;2022-12-07T23:01:52;8.27;;;3.40;;
19727;SDS011;10015;52.530;13.390;2022-12-07T23:04:18;6.47;;;3.20;;
19727;SDS011;10015;52.530;13.390;2022-12-07T23:06:45;8.10;;;3.30;;
19727;SDS011;10015;52.530;13.390;2022-12-07T23:09:11;9.27;;;3.50;;
19727;SDS011;10015;52.530;13.390;2022-12-07T23:11:39;8.37;;;3.00;;
19727;SDS011;10015;52.530;13.390;2022-12-07T23:14:26;9.43;;;2.90;;
19727;SDS011;10015;52.530;13.390;2022-12-07T23:16:57;8.57;;;3.30;;
19727;SDS011;10015;52.530;13.390;2022-12-07T23:19:24;6.57;;;3.20;;
19727;SDS011;10015;52.530;13.390;2022-12-07T23:21:51;8.67;;;3.73;;
19727;SDS011;10015;52.530;13.390;2022-12-07T23:24:16;8.30;;;3.57;;
19727;SDS011;10015;52.530;13.390;2022-12-07T23:26:43;6.97;;;3.60;;
19727;SDS011;10015;52.530;13.390;2022-12-07T23:29:10;8.27;;;3.63;;
19727;SDS011;10015;52.530;13.390;2022-12-07T23:31:37;6.33;;;2.90;;
19727;SDS011;10015;52.530;13.390;2022-12-07T23:34:02;9.33;;;3.60;;
19727;SDS011;10015;52.530;13.390;2022-12-07T23:36:29;9.80;;;3.70;;
19727;SDS011;10015;52.530;13.390;2022-12-07T23:38:56;9.03;;;4.10;;
19727;SDS011;10015;52.530;13.390;2022-12-07T23:41:27;5.73;;;3.37;;
19727;SDS011;10015;52.530;13.390;2022-12-07T23:43:54;8.67;;;3.47;;
19727;SDS011;10015;52.530;13.390;2022-12-07T23:46:26;10.67;;;4.67;;
19727;SDS011;10015;52.530;13.390;2022-12-07T23:48:54;11.93;;;4.40;;
19727;SDS011;10015;52.530;13.390;2022-12-07T23:51:22;7.80;;;4.13;;
19727;SDS011;10015;52.530;13.390;2022-12-07T23:53:49;9.43;;;3.70;;
19727;SDS011;10015;52.530;13.390;2022-12-07T23:56:16;16.20;;;4.47;;
19727;SDS011;10015;52.530;13.390;2022-12-07T23:58:47;9.53;;;3.77;;
